createdAt,value
2018-11-23T00:00:34.787Z,94.00
2018-11-23T00:03:10.611Z,93.90
2018-11-23T00:05:46.589Z,93.90
2018-11-23T00:08:38.840Z,93.90
2018-11-23T00:11:14.366Z,94.00
2018-11-23T00:13:49.963Z,94.00
2018-11-23T00:16:25.979Z,94.00
2018-11-23T00:19:01.014Z,94.00
2018-11-23T00:21:36.955Z,94.00
2018-11-23T00:24:12.839Z,94.00
2018-11-23T00:26:47.856Z,94.00
2018-11-23T00:29:23.720Z,94.00
2018-11-23T00:31:59.663Z,94.00
2018-11-23T00:34:34.691Z,93.90
2018-11-23T00:37:10.666Z,94.00
2018-11-23T00:39:46.432Z,94.00
2018-11-23T00:42:21.672Z,94.00
2018-11-23T00:44:57.501Z,94.00
2018-11-23T00:47:32.464Z,94.00
2018-11-23T00:50:10.422Z,94.00
2018-11-23T00:52:46.735Z,94.10
2018-11-23T00:55:24.341Z,94.10
2018-11-23T00:58:00.213Z,94.10
2018-11-23T01:00:35.571Z,94.10
2018-11-23T01:03:11.112Z,94.10
2018-11-23T01:05:47.057Z,94.20
2018-11-23T01:08:22.842Z,94.20
2018-11-23T01:10:58.740Z,94.20
2018-11-23T01:13:34.775Z,94.10
2018-11-23T01:16:10.602Z,93.90
2018-11-23T01:18:46.300Z,94.00
2018-11-23T01:21:22.254Z,94.00
2018-11-23T01:23:58.124Z,94.00
2018-11-23T01:26:33.991Z,94.00
2018-11-23T01:29:09.767Z,94.00
2018-11-23T01:31:44.773Z,94.10
2018-11-23T01:34:20.588Z,94.10
2018-11-23T01:36:56.503Z,94.10
2018-11-23T01:39:32.256Z,94.20
2018-11-23T01:42:09.176Z,94.30
2018-11-23T01:44:51.160Z,94.30
2018-11-23T01:47:26.847Z,94.20
2018-11-23T01:50:02.825Z,94.20
2018-11-23T01:52:37.800Z,94.10
2018-11-23T01:55:14.225Z,94.10
2018-11-23T01:57:49.595Z,94.20
2018-11-23T02:00:26.092Z,94.30
2018-11-23T02:03:01.608Z,94.40
2018-11-23T02:05:37.051Z,94.50
2018-11-23T02:08:12.053Z,94.40
2018-11-23T02:10:47.131Z,94.50
2018-11-23T02:13:22.270Z,94.50
2018-11-23T02:15:57.358Z,94.50
2018-11-23T02:18:32.270Z,94.50
2018-11-23T02:21:08.163Z,94.50
2018-11-23T02:23:43.071Z,94.50
2018-11-23T02:26:18.149Z,94.50
2018-11-23T02:28:53.990Z,94.50
2018-11-23T02:31:32.409Z,94.40
2018-11-23T02:34:08.423Z,94.30
2018-11-23T02:36:43.454Z,94.40
2018-11-23T02:39:19.166Z,94.40
2018-11-23T02:41:54.187Z,94.40
2018-11-23T02:44:29.981Z,94.40
2018-11-23T02:47:06.035Z,94.40
2018-11-23T02:49:41.769Z,94.50
2018-11-23T02:52:17.728Z,94.50
2018-11-23T02:54:53.642Z,94.60
2018-11-23T02:57:30.591Z,94.60
2018-11-23T03:00:08.735Z,94.50
2018-11-23T03:02:44.461Z,94.60
2018-11-23T03:05:21.580Z,94.60
2018-11-23T03:07:57.070Z,94.60
2018-11-23T03:10:32.829Z,94.90
2018-11-23T03:13:08.669Z,94.60
2018-11-23T03:15:44.446Z,94.50
2018-11-23T03:18:19.893Z,94.50
2018-11-23T03:20:55.732Z,94.50
2018-11-23T03:23:31.525Z,94.60
2018-11-23T03:26:07.456Z,94.60
2018-11-23T03:28:43.301Z,94.60
2018-11-23T03:31:19.169Z,94.60
2018-11-23T03:33:55.324Z,94.60
2018-11-23T03:36:30.709Z,94.40
2018-11-23T03:39:07.860Z,94.60
2018-11-23T03:41:43.591Z,94.60
2018-11-23T03:44:19.537Z,94.60
2018-11-23T03:46:55.214Z,94.60
2018-11-23T03:49:31.057Z,94.70
2018-11-23T03:52:06.357Z,94.70
2018-11-23T03:54:42.303Z,94.70
2018-11-23T03:57:17.212Z,94.70
2018-11-23T03:59:52.307Z,94.70
2018-11-23T04:02:28.129Z,94.80
2018-11-23T04:05:04.562Z,94.80
2018-11-23T04:07:39.789Z,94.70
2018-11-23T04:10:16.536Z,94.70
2018-11-23T04:12:51.644Z,94.80
2018-11-23T04:15:27.483Z,94.80
2018-11-23T04:18:03.250Z,94.90
2018-11-23T04:20:39.196Z,94.90
2018-11-23T04:23:14.995Z,94.90
2018-11-23T04:25:50.017Z,95.10
2018-11-23T04:28:25.755Z,95.10
2018-11-23T04:31:01.739Z,95.10
2018-11-23T04:33:37.580Z,95.10
2018-11-23T04:36:13.480Z,95.10
2018-11-23T04:38:48.469Z,95.10
2018-11-23T04:41:23.596Z,95.10
2018-11-23T04:43:59.424Z,95.20
2018-11-23T04:46:34.487Z,95.20
2018-11-23T04:49:10.290Z,95.10
2018-11-23T04:51:45.490Z,95.10
2018-11-23T04:54:21.324Z,95.00
2018-11-23T04:56:57.331Z,95.00
2018-11-23T04:59:33.175Z,95.00
2018-11-23T05:02:09.162Z,95.00
2018-11-23T05:04:44.160Z,95.00
2018-11-23T05:07:20.356Z,95.10
2018-11-23T05:09:56.052Z,95.10
2018-11-23T05:12:31.699Z,95.10
2018-11-23T05:15:08.873Z,95.10
2018-11-23T05:17:44.487Z,95.00
2018-11-23T05:20:20.487Z,94.90
2018-11-23T05:22:56.272Z,94.80
2018-11-23T05:25:31.328Z,94.90
2018-11-23T05:28:06.212Z,94.90
2018-11-23T05:30:42.036Z,94.90
2018-11-23T05:33:16.968Z,94.90
2018-11-23T05:35:52.755Z,95.00
2018-11-23T05:38:27.739Z,94.80
2018-11-23T05:41:03.685Z,94.90
2018-11-23T05:43:39.524Z,94.90
2018-11-23T05:46:14.614Z,94.80
2018-11-23T05:48:50.761Z,94.80
2018-11-23T05:51:25.650Z,94.90
2018-11-23T05:54:01.676Z,94.80
2018-11-23T05:56:36.648Z,94.90
2018-11-23T05:59:11.761Z,94.90
2018-11-23T06:01:47.679Z,94.90
2018-11-23T06:04:23.566Z,94.80
2018-11-23T06:06:58.509Z,94.90
2018-11-23T06:09:33.758Z,94.90
2018-11-23T06:12:09.278Z,94.90
2018-11-23T06:14:44.391Z,94.80
2018-11-23T06:17:19.293Z,94.80
2018-11-23T06:19:55.199Z,94.70
2018-11-23T06:22:30.999Z,95.00
2018-11-23T06:25:23.956Z,94.70
2018-11-23T06:27:58.915Z,94.70
2018-11-23T06:30:34.844Z,94.70
2018-11-23T06:33:27.136Z,94.80
2018-11-23T06:36:02.850Z,94.90
2018-11-23T06:38:38.876Z,94.90
2018-11-23T06:41:14.606Z,94.90
2018-11-23T06:43:50.545Z,95.10
2018-11-23T06:46:26.222Z,95.10
2018-11-23T06:49:02.174Z,95.10
2018-11-23T06:51:38.072Z,95.00
2018-11-23T06:54:14.580Z,95.10
2018-11-23T06:56:49.967Z,95.00
2018-11-23T06:59:25.044Z,95.00
2018-11-23T07:02:00.863Z,95.00
2018-11-23T07:04:38.789Z,94.70
2018-11-23T07:07:14.590Z,94.80
2018-11-23T07:09:50.430Z,94.90
2018-11-23T07:12:25.613Z,95.00
2018-11-23T07:15:01.446Z,95.10
2018-11-23T07:17:36.418Z,95.20
2018-11-23T07:20:13.242Z,95.10
2018-11-23T07:22:48.378Z,95.10
2018-11-23T07:25:24.409Z,95.10
2018-11-23T07:27:59.385Z,95.00
2018-11-23T07:30:34.415Z,95.00
2018-11-23T07:33:10.302Z,95.00
2018-11-23T07:35:46.847Z,94.90
2018-11-23T07:38:22.113Z,94.90
2018-11-23T07:41:08.393Z,94.90
2018-11-23T07:43:43.802Z,95.00
2018-11-23T07:46:18.850Z,95.00
2018-11-23T07:48:53.795Z,95.00
2018-11-23T07:51:28.846Z,95.00
2018-11-23T07:54:04.747Z,95.00
2018-11-23T07:56:40.622Z,94.90
2018-11-23T07:59:16.508Z,94.90
2018-11-23T08:01:52.467Z,94.90
2018-11-23T08:04:28.672Z,94.90
2018-11-23T08:07:04.211Z,94.70
2018-11-23T08:09:40.947Z,94.60
2018-11-23T08:12:17.985Z,94.60
2018-11-23T08:14:53.737Z,94.60
2018-11-23T08:17:28.789Z,94.60
2018-11-23T08:20:05.374Z,94.60
2018-11-23T08:22:40.883Z,94.60
2018-11-23T08:25:17.605Z,94.60
2018-11-23T08:27:54.758Z,94.60
2018-11-23T08:30:30.835Z,94.50
2018-11-23T08:33:06.483Z,94.60
2018-11-23T08:35:44.149Z,94.50
2018-11-23T08:38:19.854Z,94.40
2018-11-23T08:40:55.883Z,94.30
2018-11-23T08:43:31.703Z,94.20
2018-11-23T08:46:07.491Z,94.20
2018-11-23T08:48:42.505Z,94.20
2018-11-23T08:51:18.432Z,94.30
2018-11-23T08:53:55.433Z,94.30
2018-11-23T08:56:31.317Z,94.20
2018-11-23T08:59:06.941Z,94.30
2018-11-23T09:01:42.752Z,94.40
2018-11-23T09:04:17.831Z,94.30
2018-11-23T09:06:53.477Z,94.10
2018-11-23T09:09:29.463Z,94.30
2018-11-23T09:12:05.732Z,94.00
2018-11-23T09:14:41.161Z,93.80
2018-11-23T09:17:16.346Z,93.60
2018-11-23T09:19:52.141Z,93.60
2018-11-23T09:22:28.261Z,93.50
2018-11-23T09:25:03.959Z,93.20
2018-11-23T09:27:39.322Z,93.10
2018-11-23T09:30:17.644Z,93.20
2018-11-23T09:32:53.744Z,93.30
2018-11-23T09:35:29.903Z,93.20
2018-11-23T09:38:05.655Z,93.10
2018-11-23T09:40:41.462Z,93.10
2018-11-23T09:43:17.024Z,93.10
2018-11-23T09:45:57.521Z,93.00
2018-11-23T09:48:33.573Z,93.10
2018-11-23T09:51:09.275Z,93.10
2018-11-23T09:53:44.611Z,93.00
2018-11-23T09:56:20.632Z,93.00
2018-11-23T09:58:56.522Z,92.90
2018-11-23T10:01:32.601Z,92.90
2018-11-23T10:04:08.245Z,92.90
2018-11-23T10:06:44.016Z,92.90
2018-11-23T10:09:19.623Z,92.80
2018-11-23T10:11:55.699Z,92.80
2018-11-23T10:14:32.382Z,92.80
2018-11-23T10:17:07.599Z,92.80
2018-11-23T10:19:43.155Z,92.50
2018-11-23T10:22:20.217Z,92.10
2018-11-23T10:24:56.076Z,92.10
2018-11-23T10:27:31.280Z,92.00
2018-11-23T10:30:09.910Z,92.20
2018-11-23T10:32:45.803Z,92.30
2018-11-23T10:35:21.714Z,91.90
2018-11-23T10:37:58.993Z,91.80
2018-11-23T10:40:35.970Z,91.90
2018-11-23T10:43:11.376Z,91.80
2018-11-23T10:45:47.330Z,91.60
2018-11-23T10:48:23.205Z,91.50
2018-11-23T10:50:59.044Z,91.50
2018-11-23T10:53:34.841Z,91.20
2018-11-23T10:56:10.564Z,91.30
2018-11-23T10:58:46.557Z,91.20
2018-11-23T11:01:27.650Z,91.20
2018-11-23T11:04:08.724Z,91.10
2018-11-23T11:06:51.727Z,91.10
2018-11-23T11:09:27.021Z,90.90
2018-11-23T11:12:02.894Z,91.00
2018-11-23T11:14:38.683Z,91.00
2018-11-23T11:17:13.838Z,90.90
2018-11-23T11:19:49.483Z,90.90
2018-11-23T11:22:26.444Z,90.30
2018-11-23T11:25:02.245Z,90.20
2018-11-23T11:27:38.459Z,89.60
2018-11-23T11:30:15.895Z,90.30
2018-11-23T11:32:51.702Z,89.80
2018-11-23T11:35:26.795Z,90.00
2018-11-23T11:38:02.491Z,90.20
2018-11-23T11:40:37.679Z,90.10
2018-11-23T11:43:13.395Z,89.50
2018-11-23T11:45:49.489Z,88.60
2018-11-23T11:48:25.412Z,88.60
2018-11-23T11:51:01.261Z,88.80
2018-11-23T11:53:36.905Z,88.60
2018-11-23T11:56:12.906Z,88.70
2018-11-23T11:58:48.899Z,89.10
2018-11-23T12:01:28.584Z,89.20
2018-11-23T12:04:04.432Z,89.70
2018-11-23T12:06:39.637Z,88.90
2018-11-23T12:09:15.326Z,87.30
2018-11-23T12:11:51.385Z,87.80
2018-11-23T12:14:27.110Z,87.10
2018-11-23T12:17:02.181Z,86.70
2018-11-23T12:19:37.893Z,86.80
2018-11-23T12:22:14.261Z,86.50
2018-11-23T12:24:49.718Z,86.60
2018-11-23T12:27:25.860Z,86.30
2018-11-23T12:30:01.736Z,85.40
2018-11-23T12:32:37.703Z,85.30
2018-11-23T12:35:14.533Z,85.40
2018-11-23T12:37:49.530Z,84.20
2018-11-23T12:40:25.458Z,84.50
2018-11-23T12:43:01.378Z,83.30
2018-11-23T12:45:37.181Z,83.30
2018-11-23T12:48:13.097Z,83.80
2018-11-23T12:50:48.819Z,83.80
2018-11-23T12:53:23.793Z,83.40
2018-11-23T12:55:59.869Z,83.20
2018-11-23T12:58:35.517Z,83.70
2018-11-23T13:01:10.457Z,83.00
2018-11-23T13:03:46.244Z,83.20
2018-11-23T13:06:22.029Z,83.10
2018-11-23T13:08:57.306Z,83.20
2018-11-23T13:11:37.902Z,83.20
2018-11-23T13:14:13.571Z,83.30
2018-11-23T13:16:48.609Z,83.10
2018-11-23T13:19:24.652Z,83.00
2018-11-23T13:22:00.515Z,83.00
2018-11-23T13:24:36.360Z,82.90
2018-11-23T13:27:16.551Z,82.00
2018-11-23T13:29:52.093Z,82.20
2018-11-23T13:32:27.097Z,83.00
2018-11-23T13:35:02.879Z,83.10
2018-11-23T13:37:38.641Z,82.60
2018-11-23T13:40:15.986Z,82.60
2018-11-23T13:42:51.774Z,82.40
2018-11-23T13:45:29.558Z,82.90
2018-11-23T13:48:04.833Z,82.90
2018-11-23T13:50:40.868Z,82.70
2018-11-23T13:53:16.717Z,83.00
2018-11-23T13:55:58.405Z,83.00
2018-11-23T13:58:33.363Z,83.10
2018-11-23T14:01:09.295Z,82.90
2018-11-23T14:03:45.257Z,83.00
2018-11-23T14:06:21.384Z,83.20
2018-11-23T14:08:56.833Z,83.30
2018-11-23T14:11:32.744Z,83.20
2018-11-23T14:14:07.823Z,82.90
2018-11-23T14:16:43.680Z,82.70
2018-11-23T14:19:19.558Z,82.80
2018-11-23T14:21:55.489Z,82.90
2018-11-23T14:24:31.398Z,83.20
2018-11-23T14:27:07.338Z,83.70
2018-11-23T14:29:43.142Z,84.00
2018-11-23T14:32:19.735Z,84.00
2018-11-23T14:34:54.893Z,84.10
2018-11-23T14:37:30.804Z,84.30
2018-11-23T14:40:06.788Z,84.30
2018-11-23T14:42:47.530Z,84.50
2018-11-23T14:45:26.749Z,84.60
2018-11-23T14:48:05.142Z,84.80
2018-11-23T14:50:45.788Z,84.80
2018-11-23T14:53:21.139Z,85.10
2018-11-23T14:55:57.042Z,85.30
2018-11-23T14:58:32.702Z,85.50
2018-11-23T15:01:08.630Z,85.80
2018-11-23T15:03:44.328Z,85.90
2018-11-23T15:06:20.060Z,85.90
2018-11-23T15:08:56.009Z,86.30
2018-11-23T15:11:31.778Z,86.60
2018-11-23T15:14:07.506Z,86.90
2018-11-23T15:16:42.724Z,87.10
2018-11-23T15:19:18.580Z,87.30
2018-11-23T15:21:54.554Z,87.50
2018-11-23T15:24:30.227Z,87.60
2018-11-23T15:27:06.064Z,87.70
2018-11-23T15:29:41.919Z,87.90
2018-11-23T15:32:17.771Z,88.00
2018-11-23T15:34:53.553Z,88.30
2018-11-23T15:37:29.526Z,88.30
2018-11-23T15:40:08.118Z,88.30
2018-11-23T15:42:43.220Z,88.50
2018-11-23T15:45:21.282Z,88.90
2018-11-23T15:47:57.775Z,89.00
2018-11-23T15:50:34.455Z,88.90
2018-11-23T15:53:11.494Z,89.00
2018-11-23T15:55:46.936Z,89.40
2018-11-23T15:58:22.594Z,89.60
2018-11-23T16:00:58.398Z,89.70
2018-11-23T16:03:33.415Z,89.70
2018-11-23T16:06:09.113Z,89.90
2018-11-23T16:08:44.123Z,90.00
2018-11-23T16:11:19.896Z,90.10
2018-11-23T16:13:54.904Z,90.10
2018-11-23T16:16:30.648Z,90.20
2018-11-23T16:19:06.440Z,90.20
2018-11-23T16:21:42.137Z,90.30
2018-11-23T16:24:18.093Z,90.50
2018-11-23T16:26:55.052Z,90.50
2018-11-23T16:29:30.677Z,90.50
2018-11-23T16:32:06.555Z,90.50
2018-11-23T16:34:42.511Z,90.40
2018-11-23T16:37:18.384Z,90.40
2018-11-23T16:39:54.245Z,90.40
2018-11-23T16:42:30.169Z,90.40
2018-11-23T16:45:27.188Z,90.50
2018-11-23T16:48:03.636Z,90.50
2018-11-23T16:50:39.398Z,90.70
2018-11-23T16:53:15.342Z,90.80
2018-11-23T16:55:51.171Z,90.70
2018-11-23T16:58:26.959Z,90.80
2018-11-23T17:01:01.923Z,90.70
2018-11-23T17:03:37.755Z,90.90
2018-11-23T17:06:14.039Z,90.90
2018-11-23T17:08:49.409Z,90.90
2018-11-23T17:11:24.812Z,90.90
2018-11-23T17:14:00.677Z,90.90
2018-11-23T17:16:36.414Z,91.30
2018-11-23T17:19:12.354Z,91.20
2018-11-23T17:21:47.306Z,91.20
2018-11-23T17:24:23.131Z,91.20
2018-11-23T17:26:58.955Z,91.40
2018-11-23T17:29:34.736Z,91.30
2018-11-23T17:32:10.282Z,91.20
2018-11-23T17:34:46.210Z,91.30
2018-11-23T17:37:22.135Z,91.30
2018-11-23T17:39:57.963Z,91.50
2018-11-23T17:42:33.867Z,91.50
2018-11-23T17:45:14.327Z,91.50
2018-11-23T17:47:51.415Z,91.60
2018-11-23T17:50:27.785Z,91.60
2018-11-23T17:53:03.402Z,91.50
2018-11-23T17:55:39.188Z,91.50
2018-11-23T17:58:15.125Z,91.50
2018-11-23T18:00:50.732Z,91.60
2018-11-23T18:03:26.695Z,91.70
2018-11-23T18:06:02.415Z,91.70
2018-11-23T18:08:39.042Z,91.90
2018-11-23T18:11:14.216Z,92.00
2018-11-23T18:13:49.392Z,92.00
2018-11-23T18:16:25.040Z,92.00
2018-11-23T18:19:00.232Z,92.00
2018-11-23T18:21:36.037Z,92.00
2018-11-23T18:24:11.142Z,92.10
2018-11-23T18:26:46.862Z,92.20
2018-11-23T18:29:22.992Z,92.30
2018-11-23T18:31:58.689Z,92.20
2018-11-23T18:34:34.677Z,92.20
2018-11-23T18:37:10.438Z,92.30
2018-11-23T18:39:46.393Z,92.30
2018-11-23T18:42:21.335Z,92.30
2018-11-23T18:44:57.305Z,92.30
2018-11-23T18:47:32.326Z,92.40
2018-11-23T18:50:09.105Z,92.40
2018-11-23T18:52:44.184Z,92.50
2018-11-23T18:55:20.205Z,92.50
2018-11-23T18:57:55.839Z,92.70
2018-11-23T19:00:30.872Z,92.60
2018-11-23T19:03:06.386Z,92.70
2018-11-23T19:05:41.484Z,92.70
2018-11-23T19:08:17.354Z,92.70
2018-11-23T19:10:54.246Z,92.70
2018-11-23T19:13:29.814Z,92.70
2018-11-23T19:16:05.597Z,92.70
2018-11-23T19:18:41.400Z,92.70
2018-11-23T19:21:17.386Z,92.70
2018-11-23T19:23:54.289Z,92.70
2018-11-23T19:26:29.477Z,92.70
2018-11-23T19:29:05.334Z,92.80
2018-11-23T19:31:41.180Z,92.90
2018-11-23T19:34:16.938Z,92.90
2018-11-23T19:36:52.909Z,93.00
2018-11-23T19:39:28.542Z,93.10
2018-11-23T19:42:04.516Z,93.10
2018-11-23T19:44:40.121Z,93.00
2018-11-23T19:47:15.917Z,93.10
2018-11-23T19:49:51.750Z,93.10
2018-11-23T19:52:27.811Z,93.00
2018-11-23T19:55:03.530Z,93.00
2018-11-23T19:57:39.653Z,93.00
2018-11-23T20:00:17.577Z,93.00
2018-11-23T20:02:53.269Z,93.10
2018-11-23T20:05:28.680Z,93.00
2018-11-23T20:08:04.862Z,93.10
2018-11-23T20:10:40.495Z,93.50
2018-11-23T20:13:16.322Z,93.20
2018-11-23T20:15:52.041Z,93.20
2018-11-23T20:18:27.661Z,93.30
2018-11-23T20:21:03.551Z,93.80
2018-11-23T20:23:39.367Z,93.70
2018-11-23T20:26:16.425Z,93.70
2018-11-23T20:28:51.516Z,93.60
2018-11-23T20:31:27.528Z,93.60
2018-11-23T20:34:02.475Z,93.70
2018-11-23T20:36:37.577Z,93.80
2018-11-23T20:39:13.401Z,93.80
2018-11-23T20:41:49.314Z,93.80
2018-11-23T20:44:25.210Z,93.80
2018-11-23T20:47:01.195Z,93.70
2018-11-23T20:49:36.982Z,93.80
2018-11-23T20:52:11.982Z,93.90
2018-11-23T20:54:47.745Z,93.90
2018-11-23T20:57:22.899Z,93.90
2018-11-23T20:59:58.535Z,93.90
2018-11-23T21:02:34.299Z,93.90
2018-11-23T21:05:10.529Z,93.90
2018-11-23T21:07:46.244Z,93.90
2018-11-23T21:10:23.676Z,94.00
2018-11-23T21:12:59.475Z,94.00
2018-11-23T21:15:34.674Z,94.00
2018-11-23T21:18:10.374Z,94.00
2018-11-23T21:20:45.510Z,94.30
2018-11-23T21:23:21.242Z,94.10
2018-11-23T21:25:56.286Z,94.10
2018-11-23T21:28:32.113Z,94.00
2018-11-23T21:31:08.139Z,94.00
2018-11-23T21:33:43.761Z,94.00
2018-11-23T21:36:19.741Z,94.00
2018-11-23T21:38:55.348Z,94.10
2018-11-23T21:41:31.388Z,94.20
2018-11-23T21:44:07.077Z,94.20
2018-11-23T21:46:43.025Z,94.10
2018-11-23T21:49:18.727Z,94.10
2018-11-23T21:51:53.830Z,94.10
2018-11-23T21:54:29.530Z,94.00
2018-11-23T21:57:05.553Z,93.90
2018-11-23T21:59:41.568Z,94.00
2018-11-23T22:02:17.071Z,94.00
2018-11-23T22:04:52.004Z,94.10
2018-11-23T22:07:28.574Z,94.10
2018-11-23T22:10:06.266Z,94.20
2018-11-23T22:12:41.758Z,94.40
2018-11-23T22:15:21.785Z,94.30
2018-11-23T22:17:58.278Z,94.30
2018-11-23T22:20:33.580Z,94.30
2018-11-23T22:23:09.294Z,94.30
2018-11-23T22:25:44.382Z,94.40
2018-11-23T22:28:20.136Z,94.40
2018-11-23T22:30:58.139Z,94.30
2018-11-23T22:33:33.936Z,94.40
2018-11-23T22:36:10.062Z,94.40
2018-11-23T22:38:45.657Z,94.40
2018-11-23T22:41:20.873Z,94.50
2018-11-23T22:43:56.527Z,94.40
2018-11-23T22:46:32.504Z,94.40
2018-11-23T22:49:08.291Z,94.40
2018-11-23T22:51:43.539Z,94.40
2018-11-23T22:54:19.254Z,94.40
2018-11-23T22:56:55.380Z,94.40
2018-11-23T22:59:30.363Z,94.40
2018-11-23T23:02:06.410Z,94.40
2018-11-23T23:04:42.042Z,94.50
2018-11-23T23:07:17.073Z,94.50
2018-11-23T23:09:52.084Z,94.60
2018-11-23T23:12:27.999Z,94.50
2018-11-23T23:15:03.951Z,94.60
2018-11-23T23:17:40.694Z,94.60
2018-11-23T23:20:17.078Z,94.60
2018-11-23T23:22:52.583Z,94.60
2018-11-23T23:25:27.724Z,94.60
2018-11-23T23:28:03.430Z,94.60
2018-11-23T23:30:38.438Z,94.60
2018-11-23T23:33:14.190Z,94.60
2018-11-23T23:35:50.057Z,94.50
2018-11-23T23:38:25.056Z,94.50
2018-11-23T23:41:00.155Z,94.60
2018-11-23T23:43:35.867Z,94.50
2018-11-23T23:46:12.741Z,94.50
2018-11-23T23:48:48.408Z,94.50
2018-11-23T23:51:23.436Z,94.50
2018-11-23T23:53:59.248Z,94.60
2018-11-23T23:56:34.259Z,94.60
2018-11-23T23:59:09.195Z,94.70
